sensor_id;sensor_type;location;lat;lon;timestamp;P1;durP1;ratioP1;P2;durP2;ratioP2
6667;SDS011;3370;47.712;9.082;2023-06-22T00:01:58;12.00;;;8.10;;
6667;SDS011;3370;47.712;9.082;2023-06-22T00:04:24;16.10;;;7.90;;
6667;SDS011;3370;47.712;9.082;2023-06-22T00:06:50;10.40;;;7.10;;
6667;SDS011;3370;47.712;9.082;2023-06-22T00:09:16;11.70;;;8.17;;
6667;SDS011;3370;47.712;9.082;2023-06-22T00:11:42;13.53;;;7.07;;
6667;SDS011;3370;47.712;9.082;2023-06-22T00:14:08;22.43;;;8.23;;
6667;SDS011;3370;47.712;9.082;2023-06-22T00:16:34;12.87;;;8.43;;
6667;SDS011;3370;47.712;9.082;2023-06-22T00:19:00;12.70;;;8.17;;
6667;SDS011;3370;47.712;9.082;2023-06-22T00:21:27;16.73;;;7.50;;
6667;SDS011;3370;47.712;9.082;2023-06-22T00:23:53;18.13;;;8.60;;
6667;SDS011;3370;47.712;9.082;2023-06-22T00:26:19;13.10;;;8.60;;
6667;SDS011;3370;47.712;9.082;2023-06-22T00:28:46;16.87;;;7.80;;
6667;SDS011;3370;47.712;9.082;2023-06-22T00:31:12;15.43;;;8.47;;
6667;SDS011;3370;47.712;9.082;2023-06-22T00:33:38;12.83;;;8.83;;
6667;SDS011;3370;47.712;9.082;2023-06-22T00:36:04;14.43;;;8.13;;
6667;SDS011;3370;47.712;9.082;2023-06-22T00:38:32;10.17;;;7.73;;
6667;SDS011;3370;47.712;9.082;2023-06-22T00:40:59;14.10;;;8.07;;
6667;SDS011;3370;47.712;9.082;2023-06-22T00:43:24;14.83;;;7.97;;
6667;SDS011;3370;47.712;9.082;2023-06-22T00:45:50;12.43;;;7.80;;
6667;SDS011;3370;47.712;9.082;2023-06-22T00:48:16;13.33;;;9.10;;
6667;SDS011;3370;47.712;9.082;2023-06-22T00:50:42;12.63;;;8.40;;
6667;SDS011;3370;47.712;9.082;2023-06-22T00:53:08;11.47;;;7.13;;
6667;SDS011;3370;47.712;9.082;2023-06-22T00:55:38;14.93;;;7.63;;
6667;SDS011;3370;47.712;9.082;2023-06-22T00:58:12;13.23;;;7.57;;
6667;SDS011;3370;47.712;9.082;2023-06-22T01:00:39;10.27;;;8.10;;
6667;SDS011;3370;47.712;9.082;2023-06-22T01:03:06;12.63;;;7.10;;
6667;SDS011;3370;47.712;9.082;2023-06-22T01:05:35;13.17;;;7.87;;
6667;SDS011;3370;47.712;9.082;2023-06-22T01:08:12;18.80;;;8.27;;
6667;SDS011;3370;47.712;9.082;2023-06-22T01:16:14;14.20;;;7.23;;
6667;SDS011;3370;47.712;9.082;2023-06-22T01:18:49;10.73;;;8.10;;
6667;SDS011;3370;47.712;9.082;2023-06-22T01:21:20;9.90;;;7.20;;
6667;SDS011;3370;47.712;9.082;2023-06-22T01:29:55;14.50;;;7.47;;
6667;SDS011;3370;47.712;9.082;2023-06-22T01:32:32;18.73;;;7.90;;
6667;SDS011;3370;47.712;9.082;2023-06-22T01:35:01;10.27;;;7.07;;
6667;SDS011;3370;47.712;9.082;2023-06-22T01:37:30;11.87;;;7.63;;
6667;SDS011;3370;47.712;9.082;2023-06-22T01:39:59;12.93;;;6.67;;
6667;SDS011;3370;47.712;9.082;2023-06-22T01:42:26;14.40;;;6.70;;
6667;SDS011;3370;47.712;9.082;2023-06-22T01:44:53;13.90;;;7.73;;
6667;SDS011;3370;47.712;9.082;2023-06-22T01:47:20;12.93;;;7.10;;
6667;SDS011;3370;47.712;9.082;2023-06-22T01:49:47;20.00;;;8.87;;
6667;SDS011;3370;47.712;9.082;2023-06-22T01:52:16;15.67;;;6.80;;
6667;SDS011;3370;47.712;9.082;2023-06-22T01:54:48;10.53;;;7.00;;
6667;SDS011;3370;47.712;9.082;2023-06-22T01:57:14;14.03;;;6.43;;
6667;SDS011;3370;47.712;9.082;2023-06-22T02:02:14;25.93;;;7.13;;
6667;SDS011;3370;47.712;9.082;2023-06-22T02:04:46;10.80;;;7.13;;
6667;SDS011;3370;47.712;9.082;2023-06-22T02:07:20;18.60;;;8.00;;
6667;SDS011;3370;47.712;9.082;2023-06-22T02:09:48;11.43;;;6.53;;
6667;SDS011;3370;47.712;9.082;2023-06-22T02:12:18;9.47;;;7.00;;
6667;SDS011;3370;47.712;9.082;2023-06-22T02:14:49;12.07;;;6.57;;
6667;SDS011;3370;47.712;9.082;2023-06-22T02:17:17;19.70;;;6.50;;
6667;SDS011;3370;47.712;9.082;2023-06-22T02:19:43;10.13;;;6.17;;
6667;SDS011;3370;47.712;9.082;2023-06-22T02:22:09;14.47;;;7.60;;
6667;SDS011;3370;47.712;9.082;2023-06-22T02:24:35;17.23;;;6.77;;
6667;SDS011;3370;47.712;9.082;2023-06-22T02:27:01;11.80;;;7.10;;
6667;SDS011;3370;47.712;9.082;2023-06-22T02:29:27;18.00;;;7.37;;
6667;SDS011;3370;47.712;9.082;2023-06-22T02:31:54;13.70;;;6.90;;
6667;SDS011;3370;47.712;9.082;2023-06-22T02:34:21;15.00;;;7.80;;
6667;SDS011;3370;47.712;9.082;2023-06-22T02:36:47;16.50;;;8.20;;
6667;SDS011;3370;47.712;9.082;2023-06-22T02:39:20;8.40;;;6.73;;
6667;SDS011;3370;47.712;9.082;2023-06-22T02:41:52;15.20;;;6.87;;
6667;SDS011;3370;47.712;9.082;2023-06-22T02:44:19;13.80;;;7.17;;
6667;SDS011;3370;47.712;9.082;2023-06-22T02:46:45;16.20;;;8.53;;
6667;SDS011;3370;47.712;9.082;2023-06-22T02:49:12;12.10;;;6.80;;
6667;SDS011;3370;47.712;9.082;2023-06-22T02:51:39;16.63;;;6.80;;
6667;SDS011;3370;47.712;9.082;2023-06-22T02:54:13;14.37;;;7.10;;
6667;SDS011;3370;47.712;9.082;2023-06-22T02:56:39;10.40;;;6.00;;
6667;SDS011;3370;47.712;9.082;2023-06-22T02:59:05;13.77;;;7.03;;
6667;SDS011;3370;47.712;9.082;2023-06-22T03:01:31;20.23;;;7.73;;
6667;SDS011;3370;47.712;9.082;2023-06-22T03:04:04;13.30;;;8.00;;
6667;SDS011;3370;47.712;9.082;2023-06-22T03:06:34;12.83;;;7.37;;
6667;SDS011;3370;47.712;9.082;2023-06-22T03:09:01;16.77;;;7.27;;
6667;SDS011;3370;47.712;9.082;2023-06-22T03:11:30;19.63;;;8.10;;
6667;SDS011;3370;47.712;9.082;2023-06-22T03:13:57;13.57;;;7.10;;
6667;SDS011;3370;47.712;9.082;2023-06-22T03:16:24;12.60;;;6.87;;
6667;SDS011;3370;47.712;9.082;2023-06-22T03:18:50;13.43;;;6.87;;
6667;SDS011;3370;47.712;9.082;2023-06-22T03:21:15;15.57;;;7.80;;
6667;SDS011;3370;47.712;9.082;2023-06-22T03:23:42;16.33;;;7.80;;
6667;SDS011;3370;47.712;9.082;2023-06-22T03:26:08;15.30;;;7.47;;
6667;SDS011;3370;47.712;9.082;2023-06-22T03:28:35;9.70;;;6.60;;
6667;SDS011;3370;47.712;9.082;2023-06-22T03:31:00;18.60;;;7.03;;
6667;SDS011;3370;47.712;9.082;2023-06-22T03:33:26;17.17;;;7.23;;
6667;SDS011;3370;47.712;9.082;2023-06-22T03:35:52;15.37;;;7.30;;
6667;SDS011;3370;47.712;9.082;2023-06-22T03:38:18;9.00;;;6.30;;
6667;SDS011;3370;47.712;9.082;2023-06-22T03:40:44;11.03;;;8.43;;
6667;SDS011;3370;47.712;9.082;2023-06-22T03:43:10;12.27;;;7.23;;
6667;SDS011;3370;47.712;9.082;2023-06-22T03:45:36;14.87;;;7.73;;
6667;SDS011;3370;47.712;9.082;2023-06-22T03:48:02;12.73;;;7.83;;
6667;SDS011;3370;47.712;9.082;2023-06-22T03:50:28;13.57;;;7.43;;
6667;SDS011;3370;47.712;9.082;2023-06-22T03:52:55;19.77;;;7.43;;
6667;SDS011;3370;47.712;9.082;2023-06-22T03:55:21;17.90;;;7.97;;
6667;SDS011;3370;47.712;9.082;2023-06-22T03:57:46;19.23;;;8.27;;
6667;SDS011;3370;47.712;9.082;2023-06-22T04:00:13;15.10;;;8.53;;
6667;SDS011;3370;47.712;9.082;2023-06-22T04:02:41;18.00;;;7.93;;
6667;SDS011;3370;47.712;9.082;2023-06-22T04:05:08;12.03;;;7.40;;
6667;SDS011;3370;47.712;9.082;2023-06-22T04:07:34;14.43;;;7.43;;
6667;SDS011;3370;47.712;9.082;2023-06-22T04:10:02;15.80;;;8.70;;
6667;SDS011;3370;47.712;9.082;2023-06-22T04:12:29;16.33;;;8.27;;
6667;SDS011;3370;47.712;9.082;2023-06-22T04:14:55;16.73;;;8.33;;
6667;SDS011;3370;47.712;9.082;2023-06-22T04:17:21;16.40;;;8.63;;
6667;SDS011;3370;47.712;9.082;2023-06-22T04:19:49;16.67;;;9.37;;
6667;SDS011;3370;47.712;9.082;2023-06-22T04:22:16;14.03;;;8.20;;
6667;SDS011;3370;47.712;9.082;2023-06-22T04:24:42;13.40;;;8.23;;
6667;SDS011;3370;47.712;9.082;2023-06-22T04:27:09;12.03;;;8.90;;
6667;SDS011;3370;47.712;9.082;2023-06-22T04:29:35;17.20;;;8.40;;
6667;SDS011;3370;47.712;9.082;2023-06-22T04:32:01;17.47;;;8.20;;
6667;SDS011;3370;47.712;9.082;2023-06-22T04:34:30;16.37;;;9.20;;
6667;SDS011;3370;47.712;9.082;2023-06-22T04:36:56;21.73;;;10.60;;
6667;SDS011;3370;47.712;9.082;2023-06-22T04:39:22;14.47;;;9.33;;
6667;SDS011;3370;47.712;9.082;2023-06-22T04:41:49;15.47;;;8.63;;
6667;SDS011;3370;47.712;9.082;2023-06-22T04:44:19;20.40;;;11.00;;
6667;SDS011;3370;47.712;9.082;2023-06-22T04:46:54;20.17;;;9.57;;
6667;SDS011;3370;47.712;9.082;2023-06-22T04:49:25;24.53;;;10.00;;
6667;SDS011;3370;47.712;9.082;2023-06-22T04:51:59;17.90;;;9.20;;
6667;SDS011;3370;47.712;9.082;2023-06-22T04:54:30;12.03;;;7.70;;
6667;SDS011;3370;47.712;9.082;2023-06-22T04:57:02;17.83;;;10.50;;
6667;SDS011;3370;47.712;9.082;2023-06-22T04:59:36;27.17;;;10.97;;
6667;SDS011;3370;47.712;9.082;2023-06-22T05:02:04;15.13;;;8.17;;
6667;SDS011;3370;47.712;9.082;2023-06-22T05:04:31;14.90;;;10.03;;
6667;SDS011;3370;47.712;9.082;2023-06-22T05:06:57;21.00;;;9.50;;
6667;SDS011;3370;47.712;9.082;2023-06-22T05:09:25;20.27;;;10.90;;
6667;SDS011;3370;47.712;9.082;2023-06-22T05:11:51;21.17;;;9.50;;
6667;SDS011;3370;47.712;9.082;2023-06-22T05:14:17;15.33;;;9.20;;
6667;SDS011;3370;47.712;9.082;2023-06-22T05:16:44;16.27;;;11.30;;
6667;SDS011;3370;47.712;9.082;2023-06-22T05:19:10;16.30;;;10.40;;
6667;SDS011;3370;47.712;9.082;2023-06-22T05:21:36;17.20;;;9.07;;
6667;SDS011;3370;47.712;9.082;2023-06-22T05:24:03;17.00;;;8.60;;
6667;SDS011;3370;47.712;9.082;2023-06-22T05:26:30;16.83;;;10.30;;
6667;SDS011;3370;47.712;9.082;2023-06-22T05:28:58;18.83;;;9.10;;
6667;SDS011;3370;47.712;9.082;2023-06-22T05:31:26;11.33;;;8.50;;
6667;SDS011;3370;47.712;9.082;2023-06-22T05:33:52;12.40;;;7.90;;
6667;SDS011;3370;47.712;9.082;2023-06-22T05:36:20;15.47;;;9.43;;
6667;SDS011;3370;47.712;9.082;2023-06-22T05:38:50;17.27;;;10.57;;
6667;SDS011;3370;47.712;9.082;2023-06-22T05:41:21;12.97;;;9.30;;
6667;SDS011;3370;47.712;9.082;2023-06-22T05:43:47;17.10;;;8.57;;
6667;SDS011;3370;47.712;9.082;2023-06-22T05:46:13;21.60;;;9.57;;
6667;SDS011;3370;47.712;9.082;2023-06-22T05:48:39;18.40;;;9.10;;
6667;SDS011;3370;47.712;9.082;2023-06-22T05:51:04;13.77;;;9.07;;
6667;SDS011;3370;47.712;9.082;2023-06-22T05:53:30;12.20;;;8.37;;
6667;SDS011;3370;47.712;9.082;2023-06-22T05:55:56;11.30;;;9.40;;
6667;SDS011;3370;47.712;9.082;2023-06-22T05:58:22;14.13;;;9.40;;
6667;SDS011;3370;47.712;9.082;2023-06-22T06:00:47;19.37;;;9.30;;
6667;SDS011;3370;47.712;9.082;2023-06-22T06:03:13;13.37;;;8.70;;
6667;SDS011;3370;47.712;9.082;2023-06-22T06:05:42;17.17;;;9.60;;
6667;SDS011;3370;47.712;9.082;2023-06-22T06:08:08;17.70;;;9.70;;
6667;SDS011;3370;47.712;9.082;2023-06-22T06:10:35;15.83;;;8.90;;
6667;SDS011;3370;47.712;9.082;2023-06-22T06:13:01;14.47;;;8.37;;
6667;SDS011;3370;47.712;9.082;2023-06-22T06:15:29;13.33;;;8.60;;
6667;SDS011;3370;47.712;9.082;2023-06-22T06:17:56;14.00;;;8.33;;
6667;SDS011;3370;47.712;9.082;2023-06-22T06:20:22;11.90;;;8.30;;
6667;SDS011;3370;47.712;9.082;2023-06-22T06:22:50;14.90;;;8.27;;
6667;SDS011;3370;47.712;9.082;2023-06-22T06:25:16;13.90;;;8.83;;
6667;SDS011;3370;47.712;9.082;2023-06-22T06:27:43;20.57;;;9.50;;
6667;SDS011;3370;47.712;9.082;2023-06-22T06:30:14;17.60;;;7.93;;
6667;SDS011;3370;47.712;9.082;2023-06-22T06:32:42;19.30;;;9.77;;
6667;SDS011;3370;47.712;9.082;2023-06-22T06:35:10;21.73;;;9.23;;
6667;SDS011;3370;47.712;9.082;2023-06-22T06:37:38;16.60;;;10.03;;
6667;SDS011;3370;47.712;9.082;2023-06-22T06:40:06;21.83;;;10.83;;
6667;SDS011;3370;47.712;9.082;2023-06-22T06:42:35;20.27;;;11.60;;
6667;SDS011;3370;47.712;9.082;2023-06-22T06:45:04;16.37;;;10.90;;
6667;SDS011;3370;47.712;9.082;2023-06-22T06:47:30;13.27;;;9.77;;
6667;SDS011;3370;47.712;9.082;2023-06-22T06:49:56;20.90;;;10.50;;
6667;SDS011;3370;47.712;9.082;2023-06-22T06:52:22;19.90;;;10.90;;
6667;SDS011;3370;47.712;9.082;2023-06-22T06:54:48;20.07;;;10.60;;
6667;SDS011;3370;47.712;9.082;2023-06-22T06:57:14;16.50;;;11.43;;
6667;SDS011;3370;47.712;9.082;2023-06-22T06:59:40;14.87;;;10.00;;
6667;SDS011;3370;47.712;9.082;2023-06-22T07:02:06;14.50;;;9.23;;
6667;SDS011;3370;47.712;9.082;2023-06-22T07:04:32;23.60;;;11.57;;
6667;SDS011;3370;47.712;9.082;2023-06-22T07:06:58;17.80;;;10.97;;
6667;SDS011;3370;47.712;9.082;2023-06-22T07:09:26;17.70;;;11.30;;
6667;SDS011;3370;47.712;9.082;2023-06-22T07:11:52;20.83;;;10.47;;
6667;SDS011;3370;47.712;9.082;2023-06-22T07:14:18;17.20;;;11.17;;
6667;SDS011;3370;47.712;9.082;2023-06-22T07:16:44;19.80;;;10.40;;
6667;SDS011;3370;47.712;9.082;2023-06-22T07:19:11;13.07;;;10.37;;
6667;SDS011;3370;47.712;9.082;2023-06-22T07:21:37;21.23;;;11.80;;
6667;SDS011;3370;47.712;9.082;2023-06-22T07:24:04;17.83;;;10.60;;
6667;SDS011;3370;47.712;9.082;2023-06-22T07:26:31;19.77;;;9.90;;
6667;SDS011;3370;47.712;9.082;2023-06-22T07:28:57;28.20;;;11.73;;
6667;SDS011;3370;47.712;9.082;2023-06-22T07:31:24;19.30;;;11.30;;
6667;SDS011;3370;47.712;9.082;2023-06-22T07:33:50;20.77;;;10.73;;
6667;SDS011;3370;47.712;9.082;2023-06-22T07:36:16;21.67;;;11.20;;
6667;SDS011;3370;47.712;9.082;2023-06-22T07:38:43;15.33;;;10.90;;
6667;SDS011;3370;47.712;9.082;2023-06-22T07:41:09;21.00;;;11.27;;
6667;SDS011;3370;47.712;9.082;2023-06-22T07:43:35;24.13;;;11.57;;
6667;SDS011;3370;47.712;9.082;2023-06-22T07:46:05;19.93;;;10.63;;
6667;SDS011;3370;47.712;9.082;2023-06-22T07:48:31;17.80;;;10.67;;
6667;SDS011;3370;47.712;9.082;2023-06-22T07:50:57;21.93;;;11.97;;
6667;SDS011;3370;47.712;9.082;2023-06-22T07:53:22;21.10;;;11.90;;
6667;SDS011;3370;47.712;9.082;2023-06-22T07:55:49;26.50;;;11.63;;
6667;SDS011;3370;47.712;9.082;2023-06-22T07:58:15;16.10;;;10.33;;
6667;SDS011;3370;47.712;9.082;2023-06-22T08:00:43;21.17;;;10.33;;
6667;SDS011;3370;47.712;9.082;2023-06-22T08:03:09;15.63;;;10.90;;
6667;SDS011;3370;47.712;9.082;2023-06-22T08:05:35;20.83;;;12.30;;
6667;SDS011;3370;47.712;9.082;2023-06-22T08:08:01;17.20;;;11.60;;
6667;SDS011;3370;47.712;9.082;2023-06-22T08:10:26;23.10;;;11.93;;
6667;SDS011;3370;47.712;9.082;2023-06-22T08:12:52;16.37;;;10.53;;
6667;SDS011;3370;47.712;9.082;2023-06-22T08:15:18;18.43;;;10.10;;
6667;SDS011;3370;47.712;9.082;2023-06-22T08:17:44;19.27;;;9.30;;
6667;SDS011;3370;47.712;9.082;2023-06-22T08:20:11;16.97;;;10.97;;
6667;SDS011;3370;47.712;9.082;2023-06-22T08:22:37;18.23;;;10.17;;
6667;SDS011;3370;47.712;9.082;2023-06-22T08:25:05;18.83;;;10.80;;
6667;SDS011;3370;47.712;9.082;2023-06-22T08:27:31;19.13;;;11.87;;
6667;SDS011;3370;47.712;9.082;2023-06-22T08:30:00;23.80;;;11.17;;
6667;SDS011;3370;47.712;9.082;2023-06-22T08:32:29;17.53;;;10.90;;
6667;SDS011;3370;47.712;9.082;2023-06-22T08:34:57;16.00;;;11.60;;
6667;SDS011;3370;47.712;9.082;2023-06-22T08:37:23;20.53;;;10.53;;
6667;SDS011;3370;47.712;9.082;2023-06-22T08:39:55;18.73;;;10.83;;
6667;SDS011;3370;47.712;9.082;2023-06-22T08:42:24;25.53;;;10.80;;
6667;SDS011;3370;47.712;9.082;2023-06-22T08:44:50;24.60;;;10.20;;
6667;SDS011;3370;47.712;9.082;2023-06-22T08:47:16;22.20;;;11.43;;
6667;SDS011;3370;47.712;9.082;2023-06-22T08:49:43;18.23;;;11.70;;
6667;SDS011;3370;47.712;9.082;2023-06-22T08:52:09;22.90;;;11.50;;
6667;SDS011;3370;47.712;9.082;2023-06-22T08:54:34;20.83;;;11.10;;
6667;SDS011;3370;47.712;9.082;2023-06-22T08:57:01;23.00;;;10.80;;
6667;SDS011;3370;47.712;9.082;2023-06-22T08:59:27;19.40;;;11.73;;
6667;SDS011;3370;47.712;9.082;2023-06-22T09:01:53;24.13;;;11.90;;
6667;SDS011;3370;47.712;9.082;2023-06-22T09:04:19;20.00;;;10.13;;
6667;SDS011;3370;47.712;9.082;2023-06-22T09:06:47;17.50;;;9.00;;
6667;SDS011;3370;47.712;9.082;2023-06-22T09:09:15;19.30;;;13.17;;
6667;SDS011;3370;47.712;9.082;2023-06-22T09:11:41;20.27;;;11.33;;
6667;SDS011;3370;47.712;9.082;2023-06-22T09:14:08;17.40;;;9.83;;
6667;SDS011;3370;47.712;9.082;2023-06-22T09:16:34;18.87;;;11.23;;
6667;SDS011;3370;47.712;9.082;2023-06-22T09:19:00;24.03;;;13.40;;
6667;SDS011;3370;47.712;9.082;2023-06-22T09:21:26;21.67;;;11.90;;
6667;SDS011;3370;47.712;9.082;2023-06-22T09:23:52;26.53;;;11.40;;
6667;SDS011;3370;47.712;9.082;2023-06-22T09:26:18;20.73;;;11.77;;
6667;SDS011;3370;47.712;9.082;2023-06-22T09:28:44;22.40;;;12.97;;
6667;SDS011;3370;47.712;9.082;2023-06-22T09:31:10;20.57;;;12.57;;
6667;SDS011;3370;47.712;9.082;2023-06-22T09:33:36;26.13;;;12.40;;
6667;SDS011;3370;47.712;9.082;2023-06-22T09:36:05;21.63;;;11.60;;
6667;SDS011;3370;47.712;9.082;2023-06-22T09:38:36;19.17;;;12.60;;
6667;SDS011;3370;47.712;9.082;2023-06-22T09:41:02;19.17;;;11.47;;
6667;SDS011;3370;47.712;9.082;2023-06-22T09:43:29;22.07;;;10.13;;
6667;SDS011;3370;47.712;9.082;2023-06-22T09:45:57;18.10;;;11.20;;
6667;SDS011;3370;47.712;9.082;2023-06-22T09:48:22;18.93;;;9.90;;
6667;SDS011;3370;47.712;9.082;2023-06-22T09:50:48;30.37;;;10.60;;
6667;SDS011;3370;47.712;9.082;2023-06-22T09:53:14;24.10;;;9.80;;
6667;SDS011;3370;47.712;9.082;2023-06-22T09:55:40;20.67;;;10.40;;
6667;SDS011;3370;47.712;9.082;2023-06-22T09:58:06;18.53;;;9.53;;
6667;SDS011;3370;47.712;9.082;2023-06-22T10:00:31;15.13;;;9.60;;
6667;SDS011;3370;47.712;9.082;2023-06-22T10:02:57;19.70;;;9.37;;
6667;SDS011;3370;47.712;9.082;2023-06-22T10:05:23;20.57;;;10.07;;
6667;SDS011;3370;47.712;9.082;2023-06-22T10:07:50;20.40;;;9.70;;
6667;SDS011;3370;47.712;9.082;2023-06-22T10:10:16;17.30;;;9.60;;
6667;SDS011;3370;47.712;9.082;2023-06-22T10:12:43;17.33;;;9.67;;
6667;SDS011;3370;47.712;9.082;2023-06-22T10:15:21;27.13;;;10.57;;
6667;SDS011;3370;47.712;9.082;2023-06-22T10:17:48;16.03;;;8.70;;
6667;SDS011;3370;47.712;9.082;2023-06-22T10:20:14;18.90;;;10.30;;
6667;SDS011;3370;47.712;9.082;2023-06-22T10:22:40;22.90;;;10.10;;
6667;SDS011;3370;47.712;9.082;2023-06-22T10:25:08;25.93;;;10.20;;
6667;SDS011;3370;47.712;9.082;2023-06-22T10:27:38;18.47;;;10.30;;
6667;SDS011;3370;47.712;9.082;2023-06-22T10:30:10;22.90;;;9.73;;
6667;SDS011;3370;47.712;9.082;2023-06-22T10:32:40;16.30;;;8.80;;
6667;SDS011;3370;47.712;9.082;2023-06-22T10:35:08;21.50;;;9.30;;
6667;SDS011;3370;47.712;9.082;2023-06-22T10:37:35;16.23;;;9.93;;
6667;SDS011;3370;47.712;9.082;2023-06-22T10:40:01;26.60;;;10.00;;
6667;SDS011;3370;47.712;9.082;2023-06-22T10:42:29;19.03;;;9.57;;
6667;SDS011;3370;47.712;9.082;2023-06-22T10:44:54;22.63;;;10.40;;
6667;SDS011;3370;47.712;9.082;2023-06-22T10:47:20;17.50;;;9.30;;
6667;SDS011;3370;47.712;9.082;2023-06-22T10:49:46;16.10;;;8.80;;
6667;SDS011;3370;47.712;9.082;2023-06-22T10:52:12;15.83;;;8.73;;
6667;SDS011;3370;47.712;9.082;2023-06-22T10:54:38;16.73;;;8.60;;
6667;SDS011;3370;47.712;9.082;2023-06-22T10:57:04;18.40;;;9.27;;
6667;SDS011;3370;47.712;9.082;2023-06-22T10:59:30;23.73;;;10.40;;
6667;SDS011;3370;47.712;9.082;2023-06-22T11:01:56;24.63;;;9.47;;
6667;SDS011;3370;47.712;9.082;2023-06-22T11:04:22;21.00;;;9.13;;
6667;SDS011;3370;47.712;9.082;2023-06-22T11:06:48;16.10;;;9.17;;
6667;SDS011;3370;47.712;9.082;2023-06-22T11:09:15;17.63;;;9.77;;
6667;SDS011;3370;47.712;9.082;2023-06-22T11:11:50;20.67;;;10.40;;
6667;SDS011;3370;47.712;9.082;2023-06-22T11:14:19;20.20;;;9.67;;
6667;SDS011;3370;47.712;9.082;2023-06-22T11:16:45;21.00;;;9.60;;
6667;SDS011;3370;47.712;9.082;2023-06-22T11:19:11;28.43;;;9.73;;
6667;SDS011;3370;47.712;9.082;2023-06-22T11:21:37;28.50;;;9.53;;
6667;SDS011;3370;47.712;9.082;2023-06-22T11:24:03;20.57;;;9.90;;
6667;SDS011;3370;47.712;9.082;2023-06-22T11:26:30;22.23;;;9.63;;
6667;SDS011;3370;47.712;9.082;2023-06-22T11:28:56;18.53;;;8.97;;
6667;SDS011;3370;47.712;9.082;2023-06-22T11:31:23;21.43;;;9.77;;
6667;SDS011;3370;47.712;9.082;2023-06-22T11:33:49;19.37;;;9.57;;
6667;SDS011;3370;47.712;9.082;2023-06-22T11:36:15;20.43;;;10.20;;
6667;SDS011;3370;47.712;9.082;2023-06-22T11:38:41;26.07;;;10.43;;
6667;SDS011;3370;47.712;9.082;2023-06-22T11:41:08;22.03;;;9.30;;
6667;SDS011;3370;47.712;9.082;2023-06-22T11:43:35;17.87;;;8.60;;
6667;SDS011;3370;47.712;9.082;2023-06-22T11:46:05;17.33;;;9.40;;
6667;SDS011;3370;47.712;9.082;2023-06-22T11:48:31;22.33;;;10.00;;
6667;SDS011;3370;47.712;9.082;2023-06-22T11:50:57;21.90;;;10.10;;
6667;SDS011;3370;47.712;9.082;2023-06-22T11:53:25;20.30;;;9.03;;
6667;SDS011;3370;47.712;9.082;2023-06-22T11:55:52;14.80;;;8.80;;
6667;SDS011;3370;47.712;9.082;2023-06-22T11:58:20;18.93;;;8.67;;
6667;SDS011;3370;47.712;9.082;2023-06-22T12:00:46;12.50;;;9.30;;
6667;SDS011;3370;47.712;9.082;2023-06-22T12:03:12;20.87;;;9.23;;
6667;SDS011;3370;47.712;9.082;2023-06-22T12:05:39;15.93;;;9.40;;
6667;SDS011;3370;47.712;9.082;2023-06-22T12:08:06;19.43;;;10.23;;
6667;SDS011;3370;47.712;9.082;2023-06-22T12:10:31;23.10;;;9.47;;
6667;SDS011;3370;47.712;9.082;2023-06-22T12:12:57;17.50;;;9.50;;
6667;SDS011;3370;47.712;9.082;2023-06-22T12:15:25;24.23;;;8.60;;
6667;SDS011;3370;47.712;9.082;2023-06-22T12:17:51;18.57;;;8.27;;
6667;SDS011;3370;47.712;9.082;2023-06-22T12:20:17;21.37;;;9.20;;
6667;SDS011;3370;47.712;9.082;2023-06-22T12:22:43;17.30;;;9.47;;
6667;SDS011;3370;47.712;9.082;2023-06-22T12:25:09;26.00;;;10.13;;
6667;SDS011;3370;47.712;9.082;2023-06-22T12:27:35;23.20;;;9.60;;
6667;SDS011;3370;47.712;9.082;2023-06-22T12:30:02;15.77;;;9.10;;
6667;SDS011;3370;47.712;9.082;2023-06-22T12:32:30;23.43;;;10.13;;
6667;SDS011;3370;47.712;9.082;2023-06-22T12:34:56;17.20;;;9.47;;
6667;SDS011;3370;47.712;9.082;2023-06-22T12:37:23;13.60;;;8.90;;
6667;SDS011;3370;47.712;9.082;2023-06-22T12:39:49;19.73;;;9.30;;
6667;SDS011;3370;47.712;9.082;2023-06-22T12:42:15;16.00;;;8.30;;
6667;SDS011;3370;47.712;9.082;2023-06-22T12:44:41;18.93;;;9.03;;
6667;SDS011;3370;47.712;9.082;2023-06-22T12:47:07;22.37;;;9.50;;
6667;SDS011;3370;47.712;9.082;2023-06-22T12:49:34;20.43;;;9.40;;
6667;SDS011;3370;47.712;9.082;2023-06-22T12:52:00;16.90;;;8.03;;
6667;SDS011;3370;47.712;9.082;2023-06-22T12:54:27;19.77;;;9.40;;
6667;SDS011;3370;47.712;9.082;2023-06-22T12:56:56;20.60;;;9.07;;
6667;SDS011;3370;47.712;9.082;2023-06-22T12:59:22;21.93;;;10.17;;
6667;SDS011;3370;47.712;9.082;2023-06-22T13:01:47;19.03;;;9.23;;
6667;SDS011;3370;47.712;9.082;2023-06-22T13:04:13;18.67;;;9.73;;
6667;SDS011;3370;47.712;9.082;2023-06-22T13:06:46;27.03;;;9.03;;
6667;SDS011;3370;47.712;9.082;2023-06-22T13:09:13;15.00;;;8.80;;
6667;SDS011;3370;47.712;9.082;2023-06-22T13:11:40;15.63;;;8.70;;
6667;SDS011;3370;47.712;9.082;2023-06-22T13:14:07;22.47;;;10.20;;
6667;SDS011;3370;47.712;9.082;2023-06-22T13:16:33;21.13;;;9.80;;
6667;SDS011;3370;47.712;9.082;2023-06-22T13:18:59;22.57;;;9.90;;
6667;SDS011;3370;47.712;9.082;2023-06-22T13:21:25;17.60;;;9.60;;
6667;SDS011;3370;47.712;9.082;2023-06-22T13:23:51;15.30;;;8.73;;
6667;SDS011;3370;47.712;9.082;2023-06-22T13:26:16;16.60;;;7.63;;
6667;SDS011;3370;47.712;9.082;2023-06-22T13:28:42;23.73;;;9.30;;
6667;SDS011;3370;47.712;9.082;2023-06-22T13:31:08;20.63;;;9.57;;
6667;SDS011;3370;47.712;9.082;2023-06-22T13:33:34;18.93;;;10.20;;
6667;SDS011;3370;47.712;9.082;2023-06-22T13:36:00;15.40;;;10.57;;
6667;SDS011;3370;47.712;9.082;2023-06-22T13:38:26;22.70;;;9.20;;
6667;SDS011;3370;47.712;9.082;2023-06-22T13:40:52;21.57;;;9.57;;
6667;SDS011;3370;47.712;9.082;2023-06-22T13:43:18;26.73;;;10.57;;
6667;SDS011;3370;47.712;9.082;2023-06-22T13:45:44;15.77;;;9.23;;
6667;SDS011;3370;47.712;9.082;2023-06-22T13:48:09;17.73;;;10.13;;
6667;SDS011;3370;47.712;9.082;2023-06-22T13:50:35;13.47;;;9.70;;
6667;SDS011;3370;47.712;9.082;2023-06-22T13:53:01;21.13;;;8.97;;
6667;SDS011;3370;47.712;9.082;2023-06-22T13:55:27;19.33;;;10.07;;
6667;SDS011;3370;47.712;9.082;2023-06-22T13:57:53;22.97;;;10.10;;
6667;SDS011;3370;47.712;9.082;2023-06-22T14:00:19;22.43;;;10.57;;
6667;SDS011;3370;47.712;9.082;2023-06-22T14:02:44;19.27;;;9.60;;
6667;SDS011;3370;47.712;9.082;2023-06-22T14:05:10;24.60;;;9.30;;
6667;SDS011;3370;47.712;9.082;2023-06-22T14:07:37;22.33;;;9.87;;
6667;SDS011;3370;47.712;9.082;2023-06-22T14:10:03;16.13;;;8.83;;
6667;SDS011;3370;47.712;9.082;2023-06-22T14:12:29;28.33;;;8.90;;
6667;SDS011;3370;47.712;9.082;2023-06-22T14:14:55;23.13;;;8.90;;
6667;SDS011;3370;47.712;9.082;2023-06-22T14:17:22;14.03;;;7.67;;
6667;SDS011;3370;47.712;9.082;2023-06-22T14:19:50;18.73;;;5.93;;
6667;SDS011;3370;47.712;9.082;2023-06-22T14:22:18;25.23;;;6.47;;
6667;SDS011;3370;47.712;9.082;2023-06-22T14:24:47;15.53;;;5.40;;
6667;SDS011;3370;47.712;9.082;2023-06-22T14:27:14;9.90;;;5.10;;
6667;SDS011;3370;47.712;9.082;2023-06-22T14:29:40;17.60;;;5.80;;
6667;SDS011;3370;47.712;9.082;2023-06-22T14:32:06;13.87;;;4.80;;
6667;SDS011;3370;47.712;9.082;2023-06-22T14:34:32;19.03;;;5.40;;
6667;SDS011;3370;47.712;9.082;2023-06-22T14:37:01;20.10;;;5.73;;
6667;SDS011;3370;47.712;9.082;2023-06-22T14:39:27;22.97;;;5.27;;
6667;SDS011;3370;47.712;9.082;2023-06-22T14:41:53;15.33;;;5.40;;
6667;SDS011;3370;47.712;9.082;2023-06-22T14:44:19;17.67;;;5.37;;
6667;SDS011;3370;47.712;9.082;2023-06-22T14:46:45;12.60;;;5.17;;
6667;SDS011;3370;47.712;9.082;2023-06-22T14:49:11;13.50;;;5.13;;
6667;SDS011;3370;47.712;9.082;2023-06-22T14:51:36;15.80;;;5.73;;
6667;SDS011;3370;47.712;9.082;2023-06-22T14:54:02;17.50;;;6.07;;
6667;SDS011;3370;47.712;9.082;2023-06-22T14:56:28;12.93;;;5.83;;
6667;SDS011;3370;47.712;9.082;2023-06-22T14:58:54;17.60;;;6.10;;
6667;SDS011;3370;47.712;9.082;2023-06-22T15:01:20;10.90;;;6.00;;
6667;SDS011;3370;47.712;9.082;2023-06-22T15:03:46;19.43;;;6.47;;
6667;SDS011;3370;47.712;9.082;2023-06-22T15:06:12;26.30;;;7.43;;
6667;SDS011;3370;47.712;9.082;2023-06-22T15:08:38;16.90;;;5.87;;
6667;SDS011;3370;47.712;9.082;2023-06-22T15:11:05;17.67;;;5.70;;